Time,TemperatureF,DewpointF,PressureIn,WindDirection,WindDirectionDegrees,WindSpeedMPH,WindSpeedGustMPH,Humidity,HourlyPrecipIn,Conditions,Clouds,dailyrainin,SoftwareType,DateUTC
2013-10-05 00:24:00,66.0,65.0,29.96,ESE,123,0.0,-999.0,96,-99.99,,,-99.99,,2013-10-05 04:24:00,
2013-10-05 00:54:00,66.0,65.0,29.95,ESE,123,0.0,-999.0,97,-99.99,,,-99.99,,2013-10-05 04:54:00,
2013-10-05 01:22:00,66.0,65.0,29.94,ESE,123,0.0,-999.0,97,-99.99,,,-99.99,,2013-10-05 05:22:00,
2013-10-05 01:52:00,65.0,64.0,29.95,ESE,123,0.0,-999.0,97,-99.99,,,-99.99,,2013-10-05 05:52:00,
2013-10-05 02:22:00,65.0,64.0,29.96,ESE,123,0.0,-999.0,98,-99.99,,,-99.99,,2013-10-05 06:22:00,
2013-10-05 02:52:00,65.0,64.0,29.96,ESE,123,0.0,-999.0,98,-99.99,,,-99.99,,2013-10-05 06:52:00,
2013-10-05 03:22:00,65.0,64.0,29.96,ESE,123,0.0,-999.0,98,-99.99,,,-99.99,,2013-10-05 07:22:00,
2013-10-05 03:52:00,64.0,63.0,29.95,ESE,123,0.0,-999.0,98,-99.99,,,-99.99,,2013-10-05 07:52:00,
2013-10-05 04:23:00,64.0,63.0,29.94,ESE,123,0.0,-999.0,98,-99.99,,,-99.99,,2013-10-05 08:23:00,
2013-10-05 04:52:00,63.0,62.0,29.94,ESE,123,0.0,-999.0,98,-99.99,,,-99.99,,2013-10-05 08:52:00,
2013-10-05 05:22:00,63.0,62.0,29.95,ESE,123,0.0,-999.0,98,-99.99,,,-99.99,,2013-10-05 09:22:00,
2013-10-05 05:54:00,64.0,64.0,29.93,ESE,123,0.0,-999.0,99,-99.99,,,-99.99,,2013-10-05 09:54:00,
2013-10-05 06:23:00,64.0,64.0,29.93,ESE,123,0.0,-999.0,99,-99.99,,,-99.99,,2013-10-05 10:23:00,
2013-10-05 06:54:00,64.0,64.0,29.94,ESE,123,0.0,-999.0,99,-99.99,,,-99.99,,2013-10-05 10:54:00,
2013-10-05 07:22:00,64.0,64.0,29.94,ESE,123,0.0,-999.0,99,-99.99,,,-99.99,,2013-10-05 11:22:00,
2013-10-05 07:52:00,64.0,64.0,29.93,ESE,123,0.0,-999.0,99,-99.99,,,-99.99,,2013-10-05 11:52:00,
2013-10-05 08:22:00,64.0,64.0,29.93,ESE,123,0.0,-999.0,99,-99.99,,,-99.99,,2013-10-05 12:22:00,
2013-10-05 08:53:00,65.0,65.0,29.93,ESE,123,0.0,-999.0,99,-99.99,,,-99.99,,2013-10-05 12:53:00,
2013-10-05 09:22:00,66.0,66.0,29.94,ESE,123,0.0,-999.0,99,-99.99,,,-99.99,,2013-10-05 13:22:00,
2013-10-05 09:42:00,66.0,66.0,29.94,ESE,123,0.0,-999.0,99,-99.99,,,-99.99,,2013-10-05 13:42:00,
2013-10-05 09:52:00,66.0,66.0,29.95,South,174,2.0,-999.0,99,-99.99,,,-99.99,,2013-10-05 13:52:00,
2013-10-05 10:22:00,66.0,66.0,29.94,South,184,0.0,-999.0,99,-99.99,,,-99.99,,2013-10-05 14:22:00,
2013-10-05 10:52:00,66.0,66.0,29.95,SW,219,1.0,-999.0,99,-99.99,,,-99.99,,2013-10-05 14:52:00,
2013-10-05 11:22:00,66.0,66.0,29.95,SSE,150,1.0,-999.0,99,-99.99,,,-99.99,,2013-10-05 15:22:00,
2013-10-05 11:54:00,67.0,66.0,29.94,SW,217,1.0,-999.0,98,-99.99,,,-99.99,,2013-10-05 15:54:00,
2013-10-05 12:24:00,68.0,67.0,29.93,South,179,0.0,-999.0,97,-99.99,,,-99.99,,2013-10-05 16:24:00,
2013-10-05 12:43:00,68.0,67.0,29.92,South,184,0.0,-999.0,96,-99.99,,,-99.99,,2013-10-05 16:43:00,
2013-10-05 12:53:00,69.0,67.0,29.91,SW,235,1.0,-999.0,94,-99.99,,,-99.99,,2013-10-05 16:53:00,
2013-10-05 13:22:00,73.0,70.0,29.91,SW,216,5.0,-999.0,89,-99.99,,,-99.99,,2013-10-05 17:22:00,
2013-10-05 13:53:00,74.0,70.0,29.91,SSW,209,5.0,-999.0,86,-99.99,,,-99.99,,2013-10-05 17:53:00,
2013-10-05 14:22:00,74.0,70.0,29.91,WSW,240,8.0,-999.0,86,-99.99,,,-99.99,,2013-10-05 18:22:00,
2013-10-05 14:52:00,73.0,69.0,29.88,South,176,1.0,-999.0,88,-99.99,,,-99.99,,2013-10-05 18:52:00,
2013-10-05 15:22:00,72.0,69.0,29.89,SSW,194,3.0,-999.0,91,-99.99,,,-99.99,,2013-10-05 19:22:00,
2013-10-05 15:52:00,73.0,70.0,29.87,SW,229,2.0,-999.0,91,-99.99,,,-99.99,,2013-10-05 19:52:00,
2013-10-05 16:22:00,75.0,71.0,29.85,SW,226,2.0,-999.0,87,-99.99,,,-99.99,,2013-10-05 20:22:00,
2013-10-05 16:52:00,77.0,71.0,29.85,SSW,212,3.0,-999.0,82,-99.99,,,-99.99,,2013-10-05 20:52:00,
2013-10-05 17:22:00,76.0,70.0,29.84,SSE,163,0.0,-999.0,83,-99.99,,,-99.99,,2013-10-05 21:22:00,
2013-10-05 17:54:00,75.0,70.0,29.84,South,180,2.0,-999.0,84,-99.99,,,-99.99,,2013-10-05 21:54:00,
2013-10-05 18:24:00,75.0,68.0,29.83,SW,232,6.0,-999.0,80,-99.99,,,-99.99,,2013-10-05 22:24:00,
2013-10-05 18:53:00,73.0,68.0,29.83,SSW,207,8.0,-999.0,84,-99.99,,,-99.99,,2013-10-05 22:53:00,
2013-10-05 19:22:00,71.0,69.0,29.83,SW,220,8.0,-999.0,93,-99.99,,,-99.99,,2013-10-05 23:22:00,
2013-10-05 19:53:00,69.0,67.0,29.82,South,171,6.0,-999.0,94,-99.99,,,-99.99,,2013-10-05 23:53:00,
2013-10-05 20:12:00,69.0,68.0,29.81,SE,132,0.0,-999.0,96,-99.99,,,-99.99,,2013-10-06 00:12:00,
2013-10-05 20:23:00,69.0,68.0,29.81,SSW,198,0.0,-999.0,96,-99.99,,,-99.99,,2013-10-06 00:23:00,
2013-10-05 20:52:00,68.0,67.0,29.83,SW,222,2.0,-999.0,97,-99.99,,,-99.99,,2013-10-06 00:52:00,
2013-10-05 21:22:00,68.0,67.0,29.82,SSW,193,1.0,-999.0,97,-99.99,,,-99.99,,2013-10-06 01:22:00,
2013-10-05 21:42:00,67.0,66.0,29.81,South,169,0.0,-999.0,97,-99.99,,,-99.99,,2013-10-06 01:42:00,
2013-10-05 21:52:00,67.0,66.0,29.81,SW,214,0.0,-999.0,97,-99.99,,,-99.99,,2013-10-06 01:52:00,
2013-10-05 22:22:00,67.0,66.0,29.83,SSW,205,1.0,-999.0,97,-99.99,,,-99.99,,2013-10-06 02:22:00,
2013-10-05 22:42:00,67.0,66.0,29.83,SW,223,3.0,-999.0,98,-99.99,,,-99.99,,2013-10-06 02:42:00,
2013-10-05 22:53:00,67.0,66.0,29.82,SW,219,3.0,-999.0,98,-99.99,,,-99.99,,2013-10-06 02:53:00,
2013-10-05 23:22:00,68.0,67.0,29.80,SW,221,5.0,-999.0,97,-99.99,,,-99.99,,2013-10-06 03:22:00,
2013-10-05 23:44:00,68.0,67.0,29.81,SW,221,3.0,-999.0,97,-99.99,,,-99.99,,2013-10-06 03:44:00,
2013-10-05 23:54:00,68.0,67.0,29.82,SW,214,4.0,-999.0,97,-99.99,,,-99.99,,2013-10-06 03:54:00,